sensor_id;sensor_type;location;lat;lon;timestamp;P1;durP1;ratioP1;P2;durP2;ratioP2
64682;SDS011;51107;47.652;19.016;2022-11-15T00:02:38;14.10;;;7.40;;
64682;SDS011;51107;47.652;19.016;2022-11-15T00:05:25;11.77;;;6.07;;
64682;SDS011;51107;47.652;19.016;2022-11-15T00:08:11;13.90;;;6.70;;
64682;SDS011;51107;47.652;19.016;2022-11-15T00:10:59;17.23;;;8.23;;
64682;SDS011;51107;47.652;19.016;2022-11-15T00:13:47;12.60;;;5.55;;
64682;SDS011;51107;47.652;19.016;2022-11-15T00:16:34;12.77;;;5.00;;
64682;SDS011;51107;47.652;19.016;2022-11-15T00:19:21;8.32;;;4.75;;
64682;SDS011;51107;47.652;19.016;2022-11-15T00:22:08;11.93;;;6.25;;
64682;SDS011;51107;47.652;19.016;2022-11-15T00:24:55;9.65;;;6.07;;
64682;SDS011;51107;47.652;19.016;2022-11-15T00:27:42;11.45;;;5.97;;
64682;SDS011;51107;47.652;19.016;2022-11-15T00:30:28;12.40;;;6.25;;
64682;SDS011;51107;47.652;19.016;2022-11-15T00:33:16;9.10;;;5.32;;
64682;SDS011;51107;47.652;19.016;2022-11-15T00:36:03;21.02;;;6.45;;
64682;SDS011;51107;47.652;19.016;2022-11-15T00:38:51;10.63;;;5.40;;
64682;SDS011;51107;47.652;19.016;2022-11-15T00:41:38;12.68;;;6.80;;
64682;SDS011;51107;47.652;19.016;2022-11-15T00:44:25;9.23;;;5.30;;
64682;SDS011;51107;47.652;19.016;2022-11-15T00:47:11;8.88;;;5.80;;
64682;SDS011;51107;47.652;19.016;2022-11-15T00:49:58;14.45;;;6.28;;
64682;SDS011;51107;47.652;19.016;2022-11-15T00:52:45;11.02;;;5.10;;
64682;SDS011;51107;47.652;19.016;2022-11-15T00:55:32;11.48;;;6.05;;
64682;SDS011;51107;47.652;19.016;2022-11-15T00:58:18;10.18;;;5.45;;
64682;SDS011;51107;47.652;19.016;2022-11-15T01:01:09;12.95;;;5.93;;
64682;SDS011;51107;47.652;19.016;2022-11-15T01:03:58;14.52;;;6.95;;
64682;SDS011;51107;47.652;19.016;2022-11-15T01:06:46;8.10;;;4.87;;
64682;SDS011;51107;47.652;19.016;2022-11-15T01:09:35;15.93;;;6.35;;
64682;SDS011;51107;47.652;19.016;2022-11-15T01:12:22;8.05;;;4.47;;
64682;SDS011;51107;47.652;19.016;2022-11-15T01:15:08;7.93;;;3.40;;
64682;SDS011;51107;47.652;19.016;2022-11-15T01:17:55;7.45;;;4.15;;
64682;SDS011;51107;47.652;19.016;2022-11-15T01:20:42;16.98;;;4.35;;
64682;SDS011;51107;47.652;19.016;2022-11-15T01:23:29;5.82;;;3.58;;
64682;SDS011;51107;47.652;19.016;2022-11-15T01:26:16;5.43;;;3.22;;
64682;SDS011;51107;47.652;19.016;2022-11-15T01:29:03;6.12;;;3.05;;
64682;SDS011;51107;47.652;19.016;2022-11-15T01:31:50;5.18;;;2.78;;
64682;SDS011;51107;47.652;19.016;2022-11-15T01:34:39;9.20;;;4.12;;
64682;SDS011;51107;47.652;19.016;2022-11-15T01:37:25;7.68;;;4.00;;
64682;SDS011;51107;47.652;19.016;2022-11-15T01:40:13;8.02;;;2.90;;
64682;SDS011;51107;47.652;19.016;2022-11-15T01:43:18;3.65;;;2.40;;
64682;SDS011;51107;47.652;19.016;2022-11-15T01:49:17;8.40;;;4.60;;
64682;SDS011;51107;47.652;19.016;2022-11-15T01:52:09;7.18;;;4.00;;
64682;SDS011;51107;47.652;19.016;2022-11-15T01:55:01;4.43;;;2.78;;
64682;SDS011;51107;47.652;19.016;2022-11-15T01:57:55;6.07;;;3.33;;
64682;SDS011;51107;47.652;19.016;2022-11-15T02:00:46;7.53;;;3.58;;
64682;SDS011;51107;47.652;19.016;2022-11-15T02:03:36;4.03;;;2.95;;
64682;SDS011;51107;47.652;19.016;2022-11-15T02:06:30;12.70;;;4.03;;
64682;SDS011;51107;47.652;19.016;2022-11-15T02:09:18;10.55;;;5.72;;
64682;SDS011;51107;47.652;19.016;2022-11-15T02:12:05;8.98;;;4.72;;
64682;SDS011;51107;47.652;19.016;2022-11-15T02:14:55;13.35;;;4.30;;
64682;SDS011;51107;47.652;19.016;2022-11-15T02:18:05;10.15;;;3.85;;
64682;SDS011;51107;47.652;19.016;2022-11-15T02:30:50;3.92;;;2.22;;
64682;SDS011;51107;47.652;19.016;2022-11-15T02:33:53;10.65;;;4.03;;
64682;SDS011;51107;47.652;19.016;2022-11-15T02:37:15;5.15;;;2.87;;
64682;SDS011;51107;47.652;19.016;2022-11-15T02:40:18;5.93;;;2.80;;
64682;SDS011;51107;47.652;19.016;2022-11-15T02:43:31;2.47;;;1.70;;
64682;SDS011;51107;47.652;19.016;2022-11-15T02:46:47;3.42;;;2.47;;
64682;SDS011;51107;47.652;19.016;2022-11-15T02:52:49;6.90;;;3.42;;
64682;SDS011;51107;47.652;19.016;2022-11-15T02:55:38;7.55;;;4.45;;
64682;SDS011;51107;47.652;19.016;2022-11-15T02:58:45;4.00;;;2.42;;
64682;SDS011;51107;47.652;19.016;2022-11-15T03:04:58;9.00;;;4.60;;
64682;SDS011;51107;47.652;19.016;2022-11-15T03:11:09;5.30;;;2.83;;
64682;SDS011;51107;47.652;19.016;2022-11-15T03:14:10;4.50;;;3.08;;
64682;SDS011;51107;47.652;19.016;2022-11-15T03:20:39;5.57;;;3.40;;
64682;SDS011;51107;47.652;19.016;2022-11-15T03:23:26;6.07;;;3.22;;
64682;SDS011;51107;47.652;19.016;2022-11-15T03:26:16;5.28;;;3.37;;
64682;SDS011;51107;47.652;19.016;2022-11-15T03:29:08;7.93;;;3.78;;
64682;SDS011;51107;47.652;19.016;2022-11-15T03:32:08;10.27;;;4.68;;
64682;SDS011;51107;47.652;19.016;2022-11-15T03:35:05;11.57;;;4.30;;
64682;SDS011;51107;47.652;19.016;2022-11-15T03:40:44;7.22;;;4.62;;
64682;SDS011;51107;47.652;19.016;2022-11-15T03:46:57;5.10;;;3.42;;
64682;SDS011;51107;47.652;19.016;2022-11-15T03:49:52;5.68;;;3.87;;
64682;SDS011;51107;47.652;19.016;2022-11-15T03:52:42;10.20;;;3.80;;
64682;SDS011;51107;47.652;19.016;2022-11-15T03:55:31;7.28;;;4.10;;
64682;SDS011;51107;47.652;19.016;2022-11-15T03:58:19;5.85;;;3.50;;
64682;SDS011;51107;47.652;19.016;2022-11-15T04:01:05;5.10;;;2.80;;
64682;SDS011;51107;47.652;19.016;2022-11-15T04:03:53;7.37;;;3.30;;
64682;SDS011;51107;47.652;19.016;2022-11-15T04:06:39;5.25;;;2.50;;
64682;SDS011;51107;47.652;19.016;2022-11-15T04:09:34;6.68;;;2.83;;
64682;SDS011;51107;47.652;19.016;2022-11-15T04:12:42;3.30;;;2.22;;
64682;SDS011;51107;47.652;19.016;2022-11-15T04:15:32;5.90;;;3.55;;
64682;SDS011;51107;47.652;19.016;2022-11-15T04:18:19;4.15;;;2.78;;
64682;SDS011;51107;47.652;19.016;2022-11-15T04:21:06;11.70;;;3.75;;
64682;SDS011;51107;47.652;19.016;2022-11-15T04:24:12;4.72;;;3.00;;
64682;SDS011;51107;47.652;19.016;2022-11-15T04:27:00;4.60;;;3.10;;
64682;SDS011;51107;47.652;19.016;2022-11-15T04:29:49;7.15;;;3.65;;
64682;SDS011;51107;47.652;19.016;2022-11-15T04:32:36;9.73;;;4.53;;
64682;SDS011;51107;47.652;19.016;2022-11-15T04:35:22;9.80;;;4.57;;
64682;SDS011;51107;47.652;19.016;2022-11-15T04:38:09;12.73;;;5.53;;
64682;SDS011;51107;47.652;19.016;2022-11-15T04:40:57;11.40;;;5.35;;
64682;SDS011;51107;47.652;19.016;2022-11-15T04:43:44;6.18;;;3.72;;
64682;SDS011;51107;47.652;19.016;2022-11-15T04:46:30;14.43;;;4.85;;
64682;SDS011;51107;47.652;19.016;2022-11-15T04:49:17;8.98;;;3.53;;
64682;SDS011;51107;47.652;19.016;2022-11-15T04:52:03;6.62;;;3.70;;
64682;SDS011;51107;47.652;19.016;2022-11-15T04:54:50;5.87;;;3.72;;
64682;SDS011;51107;47.652;19.016;2022-11-15T04:57:37;7.37;;;3.85;;
64682;SDS011;51107;47.652;19.016;2022-11-15T05:00:25;4.57;;;2.97;;
64682;SDS011;51107;47.652;19.016;2022-11-15T05:03:13;7.22;;;3.65;;
64682;SDS011;51107;47.652;19.016;2022-11-15T05:06:18;6.35;;;3.53;;
64682;SDS011;51107;47.652;19.016;2022-11-15T05:09:05;7.87;;;3.87;;
64682;SDS011;51107;47.652;19.016;2022-11-15T05:11:52;6.07;;;2.90;;
64682;SDS011;51107;47.652;19.016;2022-11-15T05:14:38;5.30;;;2.92;;
64682;SDS011;51107;47.652;19.016;2022-11-15T05:17:35;9.15;;;4.97;;
64682;SDS011;51107;47.652;19.016;2022-11-15T05:20:22;8.25;;;4.05;;
64682;SDS011;51107;47.652;19.016;2022-11-15T05:23:09;6.53;;;4.12;;
64682;SDS011;51107;47.652;19.016;2022-11-15T05:25:58;5.78;;;3.40;;
64682;SDS011;51107;47.652;19.016;2022-11-15T05:28:57;5.30;;;3.35;;
64682;SDS011;51107;47.652;19.016;2022-11-15T05:31:45;5.72;;;3.50;;
64682;SDS011;51107;47.652;19.016;2022-11-15T05:34:32;5.85;;;2.97;;
64682;SDS011;51107;47.652;19.016;2022-11-15T05:37:18;8.30;;;4.15;;
64682;SDS011;51107;47.652;19.016;2022-11-15T05:40:18;5.05;;;3.45;;
64682;SDS011;51107;47.652;19.016;2022-11-15T05:43:05;8.02;;;3.30;;
64682;SDS011;51107;47.652;19.016;2022-11-15T05:45:51;9.25;;;3.70;;
64682;SDS011;51107;47.652;19.016;2022-11-15T05:48:38;6.37;;;3.90;;
64682;SDS011;51107;47.652;19.016;2022-11-15T05:51:30;6.65;;;3.45;;
64682;SDS011;51107;47.652;19.016;2022-11-15T05:54:16;4.28;;;3.03;;
64682;SDS011;51107;47.652;19.016;2022-11-15T05:57:04;6.55;;;3.35;;
64682;SDS011;51107;47.652;19.016;2022-11-15T05:59:52;8.02;;;4.03;;
64682;SDS011;51107;47.652;19.016;2022-11-15T06:02:41;4.03;;;3.10;;
64682;SDS011;51107;47.652;19.016;2022-11-15T06:05:28;7.32;;;3.50;;
64682;SDS011;51107;47.652;19.016;2022-11-15T06:08:14;6.82;;;4.87;;
64682;SDS011;51107;47.652;19.016;2022-11-15T06:11:05;7.85;;;4.37;;
64682;SDS011;51107;47.652;19.016;2022-11-15T06:13:52;10.38;;;4.68;;
64682;SDS011;51107;47.652;19.016;2022-11-15T06:16:38;7.75;;;4.60;;
64682;SDS011;51107;47.652;19.016;2022-11-15T06:19:25;6.47;;;3.80;;
64682;SDS011;51107;47.652;19.016;2022-11-15T06:22:12;6.75;;;3.97;;
64682;SDS011;51107;47.652;19.016;2022-11-15T06:24:58;5.72;;;3.75;;
64682;SDS011;51107;47.652;19.016;2022-11-15T06:27:51;12.63;;;5.12;;
64682;SDS011;51107;47.652;19.016;2022-11-15T06:30:38;8.75;;;4.00;;
64682;SDS011;51107;47.652;19.016;2022-11-15T06:33:24;12.32;;;4.53;;
64682;SDS011;51107;47.652;19.016;2022-11-15T06:36:12;9.38;;;5.37;;
64682;SDS011;51107;47.652;19.016;2022-11-15T06:39:04;7.95;;;4.05;;
64682;SDS011;51107;47.652;19.016;2022-11-15T06:41:51;16.25;;;5.35;;
64682;SDS011;51107;47.652;19.016;2022-11-15T06:44:37;9.32;;;5.53;;
64682;SDS011;51107;47.652;19.016;2022-11-15T06:47:24;12.73;;;5.72;;
64682;SDS011;51107;47.652;19.016;2022-11-15T06:50:11;11.23;;;6.82;;
64682;SDS011;51107;47.652;19.016;2022-11-15T06:53:03;14.75;;;7.00;;
64682;SDS011;51107;47.652;19.016;2022-11-15T06:55:50;10.15;;;5.57;;
64682;SDS011;51107;47.652;19.016;2022-11-15T06:58:40;13.85;;;6.45;;
64682;SDS011;51107;47.652;19.016;2022-11-15T07:01:27;15.48;;;5.07;;
64682;SDS011;51107;47.652;19.016;2022-11-15T07:04:14;10.77;;;5.20;;
64682;SDS011;51107;47.652;19.016;2022-11-15T07:07:00;9.23;;;5.80;;
64682;SDS011;51107;47.652;19.016;2022-11-15T07:09:47;7.10;;;4.05;;
64682;SDS011;51107;47.652;19.016;2022-11-15T07:12:36;7.78;;;4.20;;
64682;SDS011;51107;47.652;19.016;2022-11-15T07:15:24;7.03;;;4.75;;
64682;SDS011;51107;47.652;19.016;2022-11-15T07:18:11;7.62;;;4.25;;
64682;SDS011;51107;47.652;19.016;2022-11-15T07:21:02;8.18;;;4.32;;
64682;SDS011;51107;47.652;19.016;2022-11-15T07:23:50;7.32;;;4.62;;
64682;SDS011;51107;47.652;19.016;2022-11-15T07:26:36;7.57;;;4.12;;
64682;SDS011;51107;47.652;19.016;2022-11-15T07:29:23;7.37;;;4.07;;
64682;SDS011;51107;47.652;19.016;2022-11-15T07:32:10;10.05;;;4.57;;
64682;SDS011;51107;47.652;19.016;2022-11-15T07:34:57;7.35;;;4.60;;
64682;SDS011;51107;47.652;19.016;2022-11-15T07:37:43;10.27;;;6.00;;
64682;SDS011;51107;47.652;19.016;2022-11-15T07:40:30;7.40;;;5.35;;
64682;SDS011;51107;47.652;19.016;2022-11-15T07:43:17;7.90;;;5.57;;
64682;SDS011;51107;47.652;19.016;2022-11-15T07:46:05;7.85;;;5.35;;
64682;SDS011;51107;47.652;19.016;2022-11-15T07:48:56;11.75;;;6.62;;
64682;SDS011;51107;47.652;19.016;2022-11-15T07:51:43;10.13;;;5.50;;
64682;SDS011;51107;47.652;19.016;2022-11-15T07:54:30;8.93;;;4.90;;
64682;SDS011;51107;47.652;19.016;2022-11-15T07:57:17;9.50;;;4.95;;
64682;SDS011;51107;47.652;19.016;2022-11-15T08:00:04;8.80;;;4.95;;
64682;SDS011;51107;47.652;19.016;2022-11-15T08:02:52;11.70;;;6.18;;
64682;SDS011;51107;47.652;19.016;2022-11-15T08:05:49;8.40;;;4.90;;
64682;SDS011;51107;47.652;19.016;2022-11-15T08:08:37;11.15;;;6.22;;
64682;SDS011;51107;47.652;19.016;2022-11-15T08:11:24;9.75;;;5.18;;
64682;SDS011;51107;47.652;19.016;2022-11-15T08:14:10;12.75;;;6.28;;
64682;SDS011;51107;47.652;19.016;2022-11-15T08:16:57;12.18;;;6.50;;
64682;SDS011;51107;47.652;19.016;2022-11-15T08:19:47;9.35;;;5.50;;
64682;SDS011;51107;47.652;19.016;2022-11-15T08:22:35;7.12;;;4.50;;
64682;SDS011;51107;47.652;19.016;2022-11-15T08:25:22;9.43;;;5.50;;
64682;SDS011;51107;47.652;19.016;2022-11-15T08:28:12;11.25;;;5.10;;
64682;SDS011;51107;47.652;19.016;2022-11-15T08:30:58;9.00;;;4.93;;
64682;SDS011;51107;47.652;19.016;2022-11-15T08:33:45;9.50;;;5.72;;
64682;SDS011;51107;47.652;19.016;2022-11-15T08:36:31;9.90;;;4.10;;
64682;SDS011;51107;47.652;19.016;2022-11-15T08:39:30;11.75;;;4.40;;
64682;SDS011;51107;47.652;19.016;2022-11-15T08:42:17;12.25;;;4.53;;
64682;SDS011;51107;47.652;19.016;2022-11-15T08:45:05;14.40;;;6.15;;
64682;SDS011;51107;47.652;19.016;2022-11-15T08:47:53;9.82;;;4.35;;
64682;SDS011;51107;47.652;19.016;2022-11-15T08:50:40;8.70;;;5.00;;
64682;SDS011;51107;47.652;19.016;2022-11-15T08:53:26;8.77;;;5.78;;
64682;SDS011;51107;47.652;19.016;2022-11-15T08:56:14;8.73;;;5.55;;
64682;SDS011;51107;47.652;19.016;2022-11-15T08:59:01;8.07;;;4.82;;
64682;SDS011;51107;47.652;19.016;2022-11-15T09:01:48;12.57;;;5.40;;
64682;SDS011;51107;47.652;19.016;2022-11-15T09:04:35;34.28;;;6.03;;
64682;SDS011;51107;47.652;19.016;2022-11-15T09:07:22;9.20;;;4.80;;
64682;SDS011;51107;47.652;19.016;2022-11-15T09:10:08;9.85;;;5.97;;
64682;SDS011;51107;47.652;19.016;2022-11-15T09:12:58;10.85;;;4.50;;
64682;SDS011;51107;47.652;19.016;2022-11-15T09:15:45;8.07;;;5.28;;
64682;SDS011;51107;47.652;19.016;2022-11-15T09:18:32;9.40;;;5.20;;
64682;SDS011;51107;47.652;19.016;2022-11-15T09:21:19;11.38;;;5.60;;
64682;SDS011;51107;47.652;19.016;2022-11-15T09:24:06;7.68;;;4.43;;
64682;SDS011;51107;47.652;19.016;2022-11-15T09:26:53;7.10;;;4.25;;
64682;SDS011;51107;47.652;19.016;2022-11-15T09:29:39;10.18;;;5.25;;
64682;SDS011;51107;47.652;19.016;2022-11-15T09:32:29;9.98;;;4.97;;
64682;SDS011;51107;47.652;19.016;2022-11-15T09:35:24;8.35;;;4.95;;
64682;SDS011;51107;47.652;19.016;2022-11-15T09:38:11;12.27;;;5.45;;
64682;SDS011;51107;47.652;19.016;2022-11-15T09:43:58;8.00;;;4.72;;
64682;SDS011;51107;47.652;19.016;2022-11-15T09:49:24;16.67;;;5.57;;
64682;SDS011;51107;47.652;19.016;2022-11-15T09:51:54;7.30;;;4.55;;
64682;SDS011;51107;47.652;19.016;2022-11-15T09:54:26;7.82;;;4.55;;
64682;SDS011;51107;47.652;19.016;2022-11-15T10:03:09;9.00;;;4.85;;
64682;SDS011;51107;47.652;19.016;2022-11-15T10:05:47;5.78;;;3.97;;
64682;SDS011;51107;47.652;19.016;2022-11-15T10:11:32;8.48;;;4.82;;
64682;SDS011;51107;47.652;19.016;2022-11-15T10:20:24;6.70;;;4.45;;
64682;SDS011;51107;47.652;19.016;2022-11-15T10:23:01;6.03;;;4.25;;
64682;SDS011;51107;47.652;19.016;2022-11-15T10:25:33;6.18;;;4.05;;
64682;SDS011;51107;47.652;19.016;2022-11-15T10:28:16;7.47;;;4.75;;
64682;SDS011;51107;47.652;19.016;2022-11-15T10:30:47;14.02;;;5.95;;
64682;SDS011;51107;47.652;19.016;2022-11-15T10:41:19;7.00;;;4.15;;
64682;SDS011;51107;47.652;19.016;2022-11-15T10:49:27;8.27;;;4.82;;
64682;SDS011;51107;47.652;19.016;2022-11-15T10:51:58;10.30;;;5.90;;
64682;SDS011;51107;47.652;19.016;2022-11-15T10:54:37;9.82;;;5.32;;
64682;SDS011;51107;47.652;19.016;2022-11-15T10:57:13;9.43;;;4.95;;
64682;SDS011;51107;47.652;19.016;2022-11-15T10:59:49;14.35;;;6.68;;
64682;SDS011;51107;47.652;19.016;2022-11-15T11:05:06;6.95;;;4.35;;
64682;SDS011;51107;47.652;19.016;2022-11-15T11:07:57;9.25;;;5.05;;
64682;SDS011;51107;47.652;19.016;2022-11-15T11:10:27;7.15;;;4.62;;
64682;SDS011;51107;47.652;19.016;2022-11-15T11:13:23;7.57;;;4.62;;
64682;SDS011;51107;47.652;19.016;2022-11-15T11:21:13;8.93;;;5.05;;
64682;SDS011;51107;47.652;19.016;2022-11-15T11:23:49;8.48;;;5.45;;
64682;SDS011;51107;47.652;19.016;2022-11-15T11:29:08;7.05;;;4.22;;
64682;SDS011;51107;47.652;19.016;2022-11-15T11:45:52;7.87;;;4.87;;
64682;SDS011;51107;47.652;19.016;2022-11-15T11:51:20;10.55;;;5.43;;
64682;SDS011;51107;47.652;19.016;2022-11-15T11:53:57;8.38;;;5.03;;
64682;SDS011;51107;47.652;19.016;2022-11-15T11:56:32;10.25;;;4.53;;
64682;SDS011;51107;47.652;19.016;2022-11-15T11:59:09;6.95;;;4.57;;
64682;SDS011;51107;47.652;19.016;2022-11-15T12:01:43;10.52;;;5.15;;
64682;SDS011;51107;47.652;19.016;2022-11-15T12:07:15;8.77;;;5.18;;
64682;SDS011;51107;47.652;19.016;2022-11-15T12:12:39;10.20;;;5.03;;
64682;SDS011;51107;47.652;19.016;2022-11-15T12:15:17;6.87;;;4.03;;
64682;SDS011;51107;47.652;19.016;2022-11-15T12:17:48;7.05;;;4.20;;
64682;SDS011;51107;47.652;19.016;2022-11-15T12:20:21;10.27;;;5.18;;
64682;SDS011;51107;47.652;19.016;2022-11-15T12:31:42;9.02;;;5.32;;
64682;SDS011;51107;47.652;19.016;2022-11-15T12:36:48;8.68;;;5.43;;
64682;SDS011;51107;47.652;19.016;2022-11-15T12:39:18;10.45;;;6.35;;
64682;SDS011;51107;47.652;19.016;2022-11-15T12:47:01;7.95;;;4.57;;
64682;SDS011;51107;47.652;19.016;2022-11-15T12:52:05;7.95;;;5.32;;
64682;SDS011;51107;47.652;19.016;2022-11-15T13:17:44;7.60;;;5.00;;
64682;SDS011;51107;47.652;19.016;2022-11-15T13:22:44;9.75;;;5.57;;
64682;SDS011;51107;47.652;19.016;2022-11-15T13:33:15;10.63;;;5.30;;
64682;SDS011;51107;47.652;19.016;2022-11-15T13:35:48;10.95;;;5.93;;
64682;SDS011;51107;47.652;19.016;2022-11-15T13:38:28;11.45;;;5.12;;
64682;SDS011;51107;47.652;19.016;2022-11-15T13:41:21;8.90;;;5.50;;
64682;SDS011;51107;47.652;19.016;2022-11-15T13:43:54;10.95;;;6.53;;
64682;SDS011;51107;47.652;19.016;2022-11-15T13:46:27;13.52;;;8.32;;
64682;SDS011;51107;47.652;19.016;2022-11-15T13:48:58;11.27;;;7.20;;
64682;SDS011;51107;47.652;19.016;2022-11-15T13:56:42;8.63;;;4.75;;
64682;SDS011;51107;47.652;19.016;2022-11-15T13:59:17;14.75;;;6.87;;
64682;SDS011;51107;47.652;19.016;2022-11-15T14:04:48;12.50;;;6.75;;
64682;SDS011;51107;47.652;19.016;2022-11-15T14:07:20;10.77;;;6.62;;
64682;SDS011;51107;47.652;19.016;2022-11-15T14:09:51;10.35;;;5.68;;
64682;SDS011;51107;47.652;19.016;2022-11-15T14:18:06;9.55;;;5.65;;
64682;SDS011;51107;47.652;19.016;2022-11-15T14:21:07;16.35;;;6.07;;
64682;SDS011;51107;47.652;19.016;2022-11-15T14:23:36;12.95;;;7.35;;
64682;SDS011;51107;47.652;19.016;2022-11-15T14:26:05;16.58;;;7.65;;
64682;SDS011;51107;47.652;19.016;2022-11-15T14:28:38;12.50;;;6.70;;
64682;SDS011;51107;47.652;19.016;2022-11-15T14:31:11;15.00;;;7.65;;
64682;SDS011;51107;47.652;19.016;2022-11-15T14:33:40;11.40;;;6.43;;
64682;SDS011;51107;47.652;19.016;2022-11-15T14:36:13;13.25;;;6.80;;
64682;SDS011;51107;47.652;19.016;2022-11-15T14:38:43;18.60;;;9.05;;
64682;SDS011;51107;47.652;19.016;2022-11-15T14:41:21;12.60;;;7.28;;
64682;SDS011;51107;47.652;19.016;2022-11-15T14:43:51;10.98;;;6.00;;
64682;SDS011;51107;47.652;19.016;2022-11-15T14:46:21;12.82;;;7.15;;
64682;SDS011;51107;47.652;19.016;2022-11-15T14:48:50;11.73;;;6.25;;
64682;SDS011;51107;47.652;19.016;2022-11-15T14:51:19;9.88;;;6.25;;
64682;SDS011;51107;47.652;19.016;2022-11-15T14:53:47;10.45;;;6.75;;
64682;SDS011;51107;47.652;19.016;2022-11-15T14:56:16;14.45;;;6.43;;
64682;SDS011;51107;47.652;19.016;2022-11-15T14:58:44;12.13;;;6.90;;
64682;SDS011;51107;47.652;19.016;2022-11-15T15:01:19;13.18;;;6.32;;
64682;SDS011;51107;47.652;19.016;2022-11-15T15:03:54;13.25;;;6.82;;
64682;SDS011;51107;47.652;19.016;2022-11-15T15:06:27;11.88;;;6.43;;
64682;SDS011;51107;47.652;19.016;2022-11-15T15:08:55;8.27;;;5.00;;
64682;SDS011;51107;47.652;19.016;2022-11-15T15:11:25;9.75;;;5.80;;
64682;SDS011;51107;47.652;19.016;2022-11-15T15:13:57;13.15;;;6.18;;
64682;SDS011;51107;47.652;19.016;2022-11-15T15:16:29;12.32;;;6.57;;
64682;SDS011;51107;47.652;19.016;2022-11-15T15:19:00;11.07;;;6.07;;
64682;SDS011;51107;47.652;19.016;2022-11-15T15:21:28;12.82;;;6.40;;
64682;SDS011;51107;47.652;19.016;2022-11-15T15:24:04;8.90;;;5.35;;
64682;SDS011;51107;47.652;19.016;2022-11-15T15:26:34;11.70;;;6.72;;
64682;SDS011;51107;47.652;19.016;2022-11-15T15:29:06;26.42;;;7.97;;
64682;SDS011;51107;47.652;19.016;2022-11-15T15:31:36;9.30;;;5.72;;
64682;SDS011;51107;47.652;19.016;2022-11-15T15:34:05;12.18;;;6.60;;
64682;SDS011;51107;47.652;19.016;2022-11-15T15:36:38;8.63;;;5.25;;
64682;SDS011;51107;47.652;19.016;2022-11-15T15:39:08;8.95;;;5.78;;
64682;SDS011;51107;47.652;19.016;2022-11-15T15:41:39;17.73;;;7.55;;
64682;SDS011;51107;47.652;19.016;2022-11-15T15:44:08;16.83;;;7.87;;
64682;SDS011;51107;47.652;19.016;2022-11-15T15:46:37;18.83;;;7.00;;
64682;SDS011;51107;47.652;19.016;2022-11-15T15:49:07;18.05;;;6.93;;
64682;SDS011;51107;47.652;19.016;2022-11-15T15:51:37;17.90;;;7.05;;
64682;SDS011;51107;47.652;19.016;2022-11-15T15:54:05;9.68;;;5.45;;
64682;SDS011;51107;47.652;19.016;2022-11-15T15:56:33;14.55;;;6.47;;
64682;SDS011;51107;47.652;19.016;2022-11-15T15:59:04;10.98;;;6.87;;
64682;SDS011;51107;47.652;19.016;2022-11-15T16:01:32;11.45;;;6.15;;
64682;SDS011;51107;47.652;19.016;2022-11-15T16:04:01;17.95;;;9.60;;
64682;SDS011;51107;47.652;19.016;2022-11-15T16:06:36;13.50;;;6.97;;
64682;SDS011;51107;47.652;19.016;2022-11-15T16:09:15;16.20;;;7.30;;
64682;SDS011;51107;47.652;19.016;2022-11-15T16:11:45;15.57;;;8.75;;
64682;SDS011;51107;47.652;19.016;2022-11-15T16:14:15;13.43;;;7.12;;
64682;SDS011;51107;47.652;19.016;2022-11-15T16:16:43;12.45;;;6.85;;
64682;SDS011;51107;47.652;19.016;2022-11-15T16:19:11;13.45;;;6.90;;
64682;SDS011;51107;47.652;19.016;2022-11-15T16:21:40;15.32;;;6.03;;
64682;SDS011;51107;47.652;19.016;2022-11-15T16:24:08;12.68;;;6.18;;
64682;SDS011;51107;47.652;19.016;2022-11-15T16:26:37;11.20;;;6.68;;
64682;SDS011;51107;47.652;19.016;2022-11-15T16:29:06;11.75;;;6.93;;
64682;SDS011;51107;47.652;19.016;2022-11-15T16:31:37;10.95;;;7.00;;
64682;SDS011;51107;47.652;19.016;2022-11-15T16:34:05;14.23;;;5.97;;
64682;SDS011;51107;47.652;19.016;2022-11-15T16:36:34;14.05;;;5.87;;
64682;SDS011;51107;47.652;19.016;2022-11-15T16:39:03;12.15;;;6.60;;
64682;SDS011;51107;47.652;19.016;2022-11-15T16:41:31;11.02;;;6.72;;
64682;SDS011;51107;47.652;19.016;2022-11-15T16:44:00;10.32;;;5.93;;
64682;SDS011;51107;47.652;19.016;2022-11-15T16:46:28;13.10;;;5.47;;
64682;SDS011;51107;47.652;19.016;2022-11-15T16:48:57;10.15;;;5.80;;
64682;SDS011;51107;47.652;19.016;2022-11-15T16:51:25;10.25;;;6.03;;
64682;SDS011;51107;47.652;19.016;2022-11-15T16:53:54;8.02;;;5.40;;
64682;SDS011;51107;47.652;19.016;2022-11-15T16:56:29;17.27;;;6.37;;
64682;SDS011;51107;47.652;19.016;2022-11-15T16:58:59;14.55;;;6.60;;
64682;SDS011;51107;47.652;19.016;2022-11-15T17:01:32;11.35;;;5.87;;
64682;SDS011;51107;47.652;19.016;2022-11-15T17:04:13;8.23;;;5.32;;
64682;SDS011;51107;47.652;19.016;2022-11-15T17:06:43;11.00;;;5.82;;
64682;SDS011;51107;47.652;19.016;2022-11-15T17:09:20;8.88;;;5.35;;
64682;SDS011;51107;47.652;19.016;2022-11-15T17:11:51;14.30;;;7.35;;
64682;SDS011;51107;47.652;19.016;2022-11-15T17:14:20;16.45;;;6.40;;
64682;SDS011;51107;47.652;19.016;2022-11-15T17:16:48;14.20;;;6.87;;
64682;SDS011;51107;47.652;19.016;2022-11-15T17:19:18;11.82;;;5.25;;
64682;SDS011;51107;47.652;19.016;2022-11-15T17:21:47;8.93;;;5.37;;
64682;SDS011;51107;47.652;19.016;2022-11-15T17:24:19;12.40;;;6.62;;
64682;SDS011;51107;47.652;19.016;2022-11-15T17:26:48;9.60;;;5.05;;
64682;SDS011;51107;47.652;19.016;2022-11-15T17:29:16;9.85;;;5.47;;
64682;SDS011;51107;47.652;19.016;2022-11-15T17:31:45;13.38;;;6.12;;
64682;SDS011;51107;47.652;19.016;2022-11-15T17:34:13;10.65;;;5.03;;
64682;SDS011;51107;47.652;19.016;2022-11-15T17:36:41;8.43;;;5.00;;
64682;SDS011;51107;47.652;19.016;2022-11-15T17:39:10;11.80;;;5.40;;
64682;SDS011;51107;47.652;19.016;2022-11-15T17:41:38;9.95;;;6.07;;
64682;SDS011;51107;47.652;19.016;2022-11-15T17:44:07;13.45;;;5.85;;
64682;SDS011;51107;47.652;19.016;2022-11-15T17:46:35;10.45;;;5.60;;
64682;SDS011;51107;47.652;19.016;2022-11-15T17:49:03;10.15;;;5.37;;
64682;SDS011;51107;47.652;19.016;2022-11-15T17:51:32;9.60;;;4.87;;
64682;SDS011;51107;47.652;19.016;2022-11-15T17:54:00;10.63;;;6.05;;
64682;SDS011;51107;47.652;19.016;2022-11-15T17:56:29;11.23;;;5.50;;
64682;SDS011;51107;47.652;19.016;2022-11-15T17:58:59;18.15;;;5.50;;
64682;SDS011;51107;47.652;19.016;2022-11-15T18:01:28;13.27;;;6.15;;
64682;SDS011;51107;47.652;19.016;2022-11-15T18:03:59;12.65;;;6.82;;
64682;SDS011;51107;47.652;19.016;2022-11-15T18:06:30;9.82;;;4.65;;
64682;SDS011;51107;47.652;19.016;2022-11-15T18:09:02;7.03;;;4.95;;
64682;SDS011;51107;47.652;19.016;2022-11-15T18:11:33;13.70;;;6.70;;
64682;SDS011;51107;47.652;19.016;2022-11-15T18:14:06;13.02;;;6.12;;
64682;SDS011;51107;47.652;19.016;2022-11-15T18:16:37;14.48;;;6.90;;
64682;SDS011;51107;47.652;19.016;2022-11-15T18:19:07;18.02;;;6.20;;
64682;SDS011;51107;47.652;19.016;2022-11-15T18:21:40;18.12;;;7.35;;
64682;SDS011;51107;47.652;19.016;2022-11-15T18:24:24;10.27;;;6.37;;
64682;SDS011;51107;47.652;19.016;2022-11-15T18:26:57;12.25;;;6.68;;
64682;SDS011;51107;47.652;19.016;2022-11-15T18:29:26;14.38;;;7.28;;
64682;SDS011;51107;47.652;19.016;2022-11-15T18:31:55;11.12;;;6.60;;
64682;SDS011;51107;47.652;19.016;2022-11-15T18:34:25;12.40;;;5.82;;
64682;SDS011;51107;47.652;19.016;2022-11-15T18:36:59;9.50;;;5.87;;
64682;SDS011;51107;47.652;19.016;2022-11-15T18:39:29;10.50;;;5.97;;
64682;SDS011;51107;47.652;19.016;2022-11-15T18:41:58;13.35;;;7.97;;